Portada
METAR-TAF:

METAR-TAF

Aeropuertos :

Curazao, Antillas Neerlandesas

Aeropuerto Internacional Hato

latitud: 12-12N, longitud: 068-58W, altitud: 9 m

Observación

El informe se hizo hace 54 minutos, a las 17:00 UTC
Viento 15 kt del este
Temperatura 31°C
Humedad 63%
Presión 1013 hPa
Visibilidad 10 km o más
Escasas nubes a una altura de 2200 ft

METAR: TNCC 281700Z 08015KT 9999 FEW022 31/23 Q1013 NOSIG

Hora: 13:54 (17:54 UTC)

Pronóstico

El informe se hizo hace 1 hora y 54 minutos, a las 16:00 UTC
Pronóstico válido del 28 a las 18 UTC al 29 a las 18 UTC
Viento 16 kt del este
Visibilidad 10 km o más
Nubes dispersas a una altura de 2000 ft

TAF: TNCC 281600Z 2818/2918 09016KT 9999 SCT020

Observaciones y pronósticos meteorológicos de más de 4000 aeropuertos (mensajes METAR y TAF).

Los puntos amarillos y rojos representan las estaciones disponibles.

Ponga el ratón en el punto deseado para ver el nombre de la estación.

Haga clic para ver las observaciones y los pronósticos meteorológicos.

Para cambiar el mapa : haga clic en los botones verdes con una cruz de color negro para hacer un zoom, en el botón verde con un guión para alejar o en las flechas verdes para mapas adyacentes.


METAR-TAF: